This is the latest recevied weather packets stored in our database for station/object KB1YTR-1. If no packets are shown the sender has not sent any weather packets the latest 1 day(s).
| Time | Temp. | Humidity | Pressure | Rain* | Wind** | Luminosity | Snow |
|---|---|---|---|---|---|---|---|
| 1836274526 | 12.22° C | 99% | 1018 hPa | 0 mm | 3.58 m/s, 77° | - | - |
| 1778039797 | 1.67° C | 65% | 1011.8 hPa | 0 mm | 2.68 m/s, 303° | - | - |
| 1778038982 | 1.67° C | 64% | 1011.8 hPa | 0 mm | 1.34 m/s, 297° | - | - |
| 1778038247 | 1.67° C | 64% | 1011.6 hPa | 0 mm | 2.24 m/s, 326° | - | - |
| 1778037447 | 1.67° C | 63% | 1011.7 hPa | 0 mm | 2.24 m/s, 309° | - | - |
| 1778036642 | 1.67° C | 63% | 1011.6 hPa | 0 mm | 1.34 m/s, 290° | - | - |
| 1778035752 | 1.67° C | 62% | 1011.6 hPa | 0 mm | 1.34 m/s, 305° | - | - |
| 1778034992 | 1.67° C | 62% | 1011.4 hPa | 0 mm | 0.89 m/s, 317° | - | - |
| 1778034272 | 1.67° C | 62% | 1011.3 hPa | 0 mm | 1.34 m/s, 267° | - | - |
| 1778033458 | 1.67° C | 61% | 1011.2 hPa | 0 mm | 2.68 m/s, 302° | - | - |
| 1778032562 | 2.22° C | 61% | 1011.1 hPa | 0 mm | 1.34 m/s, 283° | - | - |
| 1778031785 | 2.22° C | 60% | 1010.9 hPa | 0 mm | 1.79 m/s, 318° | - | - |
| 1778031025 | 2.22° C | 60% | 1010.7 hPa | 0 mm | 1.79 m/s, 325° | - | - |
| 1778030282 | 2.22° C | 59% | 1010.5 hPa | 0 mm | 1.34 m/s, 325° | - | - |
| 1778029397 | 2.78° C | 59% | 1010.3 hPa | 0 mm | 2.24 m/s, 250° | - | - |
| 1778028497 | 2.78° C | 59% | 1010.2 hPa | 0 mm | 0.89 m/s, 315° | - | - |
| 1778027707 | 2.78° C | 58% | 1010.1 hPa | 0 mm | 2.68 m/s, 285° | - | - |
| 1778026902 | 2.78° C | 58% | 1009.9 hPa | 0 mm | 1.34 m/s, 272° | - | - |
| 1778026117 | 3.33° C | 57% | 1009.7 hPa | 0 mm | 4.47 m/s, 291° | - | - |
| 1778025322 | 3.33° C | 57% | 1009.6 hPa | 0 mm | 4.02 m/s, 314° | - | - |
| 1778024527 | 3.33° C | 57% | 1009.7 hPa | 0 mm | 2.24 m/s, 282° | - | - |
| 1778023716 | 3.89° C | 57% | 1009.5 hPa | 0 mm | 2.68 m/s, 326° | - | - |
| 1778022992 | 3.89° C | 56% | 1009.5 hPa | 0 mm | 2.68 m/s, 265° | - | - |
| 1778022147 | 4.44° C | 55% | 1009.7 hPa | 0 mm | 6.71 m/s, 279° | - | - |
| 1778021247 | 3.89° C | 56% | 1009.5 hPa | 0 mm | 3.13 m/s, 299° | - | - |
* Rain latest hour (hover to see other rain measurements)
** Current wind speed in m/s (hover to see current wind gust speed)